createdAt,value
2022-10-28T00:00:29.841Z,91.35
2022-10-28T00:01:29.863Z,91.25
2022-10-28T00:02:29.858Z,91.11
2022-10-28T00:03:29.815Z,91.11
2022-10-28T00:05:29.801Z,91.11
2022-10-28T00:06:29.764Z,91.01
2022-10-28T00:07:29.741Z,91.01
2022-10-28T00:08:29.727Z,91.01
2022-10-28T00:09:29.734Z,91.01
2022-10-28T00:10:29.719Z,91.01
2022-10-28T00:11:29.713Z,90.91
2022-10-28T00:12:29.695Z,90.91
2022-10-28T00:13:29.664Z,90.91
2022-10-28T00:14:29.707Z,90.91
2022-10-28T00:15:29.657Z,90.91
2022-10-28T00:16:29.624Z,90.91
2022-10-28T00:17:29.628Z,90.81
2022-10-28T00:18:29.628Z,90.81
2022-10-28T00:19:29.603Z,90.70
2022-10-28T00:20:29.583Z,90.61
2022-10-28T00:21:29.575Z,90.61
2022-10-28T00:22:29.561Z,90.70
2022-10-28T00:23:29.550Z,90.61
2022-10-28T00:24:29.533Z,90.41
2022-10-28T00:25:29.525Z,90.41
2022-10-28T00:26:29.505Z,90.41
2022-10-28T00:27:29.490Z,90.30
2022-10-28T00:28:29.469Z,90.30
2022-10-28T00:29:29.475Z,90.30
2022-10-28T00:31:29.438Z,90.30
2022-10-28T00:32:29.448Z,90.20
2022-10-28T00:33:29.403Z,90.10
2022-10-28T00:34:29.382Z,90.20
2022-10-28T00:35:29.423Z,90.30
2022-10-28T00:36:29.362Z,90.30
2022-10-28T00:37:29.352Z,90.20
2022-10-28T00:38:29.333Z,90.30
2022-10-28T00:39:29.355Z,90.41
2022-10-28T00:40:29.310Z,90.41
2022-10-28T00:41:29.311Z,90.30
2022-10-28T00:42:29.290Z,90.30
2022-10-28T00:43:29.274Z,90.30
2022-10-28T00:44:29.254Z,90.30
2022-10-28T00:45:29.253Z,90.20
2022-10-28T00:46:29.263Z,90.10
2022-10-28T00:47:29.220Z,90.10
2022-10-28T00:48:29.225Z,90.10
2022-10-28T00:49:29.203Z,90.00
2022-10-28T00:50:29.178Z,89.79
2022-10-28T00:51:29.182Z,89.59
2022-10-28T00:52:29.193Z,89.59
2022-10-28T00:53:29.144Z,89.50
2022-10-28T00:54:29.120Z,89.50
2022-10-28T00:55:29.126Z,89.59
2022-10-28T00:56:29.111Z,89.59
2022-10-28T00:57:29.098Z,89.59
2022-10-28T00:58:29.092Z,89.70
2022-10-28T00:59:29.065Z,89.50
2022-10-28T01:00:29.060Z,89.39
2022-10-28T01:01:29.190Z,89.50
2022-10-28T01:02:29.085Z,89.50
2022-10-28T01:03:29.027Z,89.50
2022-10-28T01:04:29.003Z,89.50
2022-10-28T01:05:28.981Z,89.50
2022-10-28T01:06:28.983Z,89.59
2022-10-28T01:07:28.990Z,89.90
2022-10-28T01:08:28.930Z,89.79
2022-10-28T01:09:28.947Z,89.70
2022-10-28T01:10:28.942Z,89.70
2022-10-28T01:11:28.906Z,89.70
2022-10-28T01:12:28.898Z,89.50
2022-10-28T01:13:28.890Z,89.50
2022-10-28T01:14:28.861Z,89.50
2022-10-28T01:15:28.858Z,89.50
2022-10-28T01:16:28.836Z,89.39
2022-10-28T01:17:28.837Z,89.39
2022-10-28T01:18:28.840Z,89.39
2022-10-28T01:19:28.810Z,89.39
2022-10-28T01:20:28.787Z,89.39
2022-10-28T01:21:28.775Z,89.29
2022-10-28T01:22:28.776Z,89.15
2022-10-28T01:23:28.759Z,89.15
2022-10-28T01:24:28.750Z,89.05
2022-10-28T01:25:28.729Z,89.05
2022-10-28T01:26:28.722Z,89.05
2022-10-28T01:27:28.739Z,88.75
2022-10-28T01:28:28.701Z,88.85
2022-10-28T01:29:28.665Z,88.75
2022-10-28T01:30:28.662Z,88.65
2022-10-28T01:31:28.648Z,88.65
2022-10-28T01:32:28.619Z,88.65
2022-10-28T01:33:28.627Z,88.75
2022-10-28T01:34:28.597Z,88.65
2022-10-28T01:35:28.602Z,88.34
2022-10-28T01:36:28.585Z,88.45
2022-10-28T01:37:28.590Z,88.34
2022-10-28T01:38:28.588Z,88.34
2022-10-28T01:39:28.536Z,88.45
2022-10-28T01:40:28.531Z,88.54
2022-10-28T01:41:28.584Z,88.65
2022-10-28T01:42:28.487Z,88.65
2022-10-28T01:43:28.491Z,88.54
2022-10-28T01:44:28.478Z,88.85
2022-10-28T01:45:28.454Z,88.85
2022-10-28T01:46:28.437Z,88.95
2022-10-28T01:47:28.435Z,88.85
2022-10-28T01:48:28.460Z,88.89
2022-10-28T01:49:28.418Z,88.79
2022-10-28T01:50:28.395Z,88.99
2022-10-28T01:51:28.376Z,88.99
2022-10-28T01:52:28.370Z,88.89
2022-10-28T01:53:28.364Z,88.89
2022-10-28T01:54:28.349Z,88.89
2022-10-28T01:55:28.338Z,88.99
2022-10-28T01:56:28.332Z,88.89
2022-10-28T01:57:28.320Z,88.89
2022-10-28T01:58:28.285Z,88.99
2022-10-28T01:59:28.299Z,88.89
2022-10-28T02:00:28.345Z,88.99
2022-10-28T02:01:28.497Z,88.99
2022-10-28T02:02:28.244Z,89.09
2022-10-28T02:03:28.248Z,89.09
2022-10-28T02:04:28.201Z,88.99
2022-10-28T02:05:28.195Z,88.89
2022-10-28T02:06:28.207Z,88.99
2022-10-28T02:07:28.188Z,88.99
2022-10-28T02:08:28.178Z,88.89
2022-10-28T02:09:28.162Z,88.99
2022-10-28T02:10:28.161Z,88.99
2022-10-28T02:11:28.153Z,88.99
2022-10-28T02:12:28.134Z,89.09
2022-10-28T02:13:28.131Z,89.09
2022-10-28T02:14:28.064Z,89.09
2022-10-28T02:15:28.085Z,89.09
2022-10-28T02:16:28.072Z,89.09
2022-10-28T02:17:28.067Z,89.29
2022-10-28T02:18:28.053Z,89.29
2022-10-28T02:19:28.025Z,89.29
2022-10-28T02:20:28.010Z,89.29
2022-10-28T02:21:28.024Z,89.19
2022-10-28T02:22:27.972Z,89.19
2022-10-28T02:23:27.991Z,89.19
2022-10-28T02:24:27.954Z,89.29
2022-10-28T02:25:27.944Z,89.39
2022-10-28T02:26:27.938Z,89.39
2022-10-28T02:27:27.917Z,89.50
2022-10-28T02:28:27.904Z,89.39
2022-10-28T02:29:27.904Z,89.39
2022-10-28T02:30:27.877Z,89.39
2022-10-28T02:31:27.874Z,89.43
2022-10-28T02:32:27.863Z,89.43
2022-10-28T02:33:27.860Z,89.54
2022-10-28T02:34:27.814Z,89.64
2022-10-28T02:35:27.820Z,89.64
2022-10-28T02:36:27.869Z,89.64
2022-10-28T02:37:27.815Z,89.74
2022-10-28T02:38:27.753Z,89.74
2022-10-28T02:39:27.848Z,89.74
2022-10-28T02:40:27.747Z,89.84
2022-10-28T02:41:27.724Z,89.94
2022-10-28T02:42:27.742Z,90.04
2022-10-28T02:43:27.707Z,90.04
2022-10-28T02:44:27.707Z,89.94
2022-10-28T02:45:27.684Z,90.04
2022-10-28T02:46:27.677Z,90.04
2022-10-28T02:47:27.702Z,89.94
2022-10-28T02:48:27.639Z,90.04
2022-10-28T02:49:27.626Z,90.14
2022-10-28T02:50:27.631Z,90.14
2022-10-28T02:51:27.592Z,90.04
2022-10-28T02:52:27.618Z,90.04
2022-10-28T02:53:27.609Z,90.04
2022-10-28T02:54:27.575Z,90.04
2022-10-28T02:55:27.551Z,90.04
2022-10-28T02:56:27.553Z,90.14
2022-10-28T02:57:27.543Z,90.24
2022-10-28T02:58:27.511Z,90.19
2022-10-28T02:59:27.484Z,90.19
2022-10-28T03:00:27.526Z,90.19
2022-10-28T03:01:27.573Z,90.19
2022-10-28T03:02:27.485Z,90.19
2022-10-28T03:03:27.445Z,90.28
2022-10-28T03:04:27.428Z,90.28
2022-10-28T03:05:27.401Z,90.28
2022-10-28T03:06:27.405Z,90.39
2022-10-28T03:07:27.455Z,90.39
2022-10-28T03:08:27.394Z,90.49
2022-10-28T03:09:27.351Z,90.49
2022-10-28T03:10:27.353Z,90.49
2022-10-28T03:11:27.344Z,90.59
2022-10-28T03:12:27.332Z,90.59
2022-10-28T03:13:27.334Z,90.59
2022-10-28T03:14:27.311Z,90.69
2022-10-28T03:15:27.310Z,90.79
2022-10-28T03:16:27.272Z,90.79
2022-10-28T03:17:27.250Z,90.79
2022-10-28T03:18:27.234Z,91.03
2022-10-28T03:19:27.233Z,91.03
2022-10-28T03:20:27.219Z,90.94
2022-10-28T03:21:27.206Z,90.94
2022-10-28T03:22:27.188Z,91.03
2022-10-28T03:23:27.174Z,91.03
2022-10-28T03:24:27.190Z,91.03
2022-10-28T03:25:27.170Z,91.14
2022-10-28T03:26:27.143Z,91.14
2022-10-28T03:27:27.110Z,91.14
2022-10-28T03:28:27.104Z,91.14
2022-10-28T03:29:27.122Z,91.14
2022-10-28T03:30:27.092Z,91.03
2022-10-28T03:31:27.059Z,91.03
2022-10-28T03:32:27.059Z,91.03
2022-10-28T03:33:27.064Z,91.14
2022-10-28T03:34:27.047Z,91.14
2022-10-28T03:35:27.006Z,91.14
2022-10-28T03:36:27.012Z,91.14
2022-10-28T03:37:26.979Z,91.14
2022-10-28T03:38:26.990Z,91.14
2022-10-28T03:39:26.969Z,91.14
2022-10-28T03:40:26.973Z,91.14
2022-10-28T03:41:26.991Z,91.14
2022-10-28T03:42:26.932Z,91.24
2022-10-28T03:43:26.930Z,91.24
2022-10-28T03:44:26.902Z,91.24
2022-10-28T03:45:26.917Z,91.24
2022-10-28T03:46:27.672Z,91.24
2022-10-28T03:47:26.859Z,91.34
2022-10-28T03:48:26.862Z,91.34
2022-10-28T03:49:26.851Z,91.44
2022-10-28T03:50:26.808Z,91.44
2022-10-28T03:51:26.840Z,91.54
2022-10-28T03:52:26.800Z,91.64
2022-10-28T03:53:27.804Z,91.64
2022-10-28T03:54:26.772Z,91.69
2022-10-28T03:55:26.791Z,91.78
2022-10-28T03:56:26.751Z,91.78
2022-10-28T03:57:26.742Z,91.58
2022-10-28T03:58:26.732Z,91.69
2022-10-28T03:59:26.708Z,91.58
2022-10-28T04:00:26.718Z,91.58
2022-10-28T04:01:26.890Z,91.69
2022-10-28T04:02:26.713Z,91.78
2022-10-28T04:03:26.651Z,91.69
2022-10-28T04:04:29.918Z,91.78
2022-10-28T04:05:26.615Z,91.78
2022-10-28T04:06:26.624Z,91.69
2022-10-28T04:07:26.587Z,91.69
2022-10-28T04:08:26.597Z,91.69
2022-10-28T04:09:26.580Z,91.69
2022-10-28T04:10:26.540Z,91.58
2022-10-28T04:11:26.547Z,91.44
2022-10-28T04:12:26.548Z,91.24
2022-10-28T04:13:26.508Z,91.14
2022-10-28T04:14:26.488Z,91.03
2022-10-28T04:15:26.498Z,91.03
2022-10-28T04:16:26.457Z,90.94
2022-10-28T04:17:26.480Z,90.83
2022-10-28T04:18:26.460Z,91.03
2022-10-28T04:19:26.438Z,90.94
2022-10-28T04:20:26.421Z,90.83
2022-10-28T04:21:26.394Z,90.63
2022-10-28T04:22:26.386Z,90.53
2022-10-28T04:23:26.412Z,90.33
2022-10-28T04:24:26.357Z,90.12
2022-10-28T04:25:27.091Z,89.78
2022-10-28T04:26:26.332Z,89.58
2022-10-28T04:27:26.315Z,89.48
2022-10-28T04:28:26.319Z,89.37
2022-10-28T04:29:26.329Z,89.28
2022-10-28T04:30:26.274Z,89.28
2022-10-28T04:31:26.263Z,89.28
2022-10-28T04:32:26.268Z,89.28
2022-10-28T04:33:26.253Z,89.28
2022-10-28T04:34:26.258Z,89.17
2022-10-28T04:35:26.224Z,89.28
2022-10-28T04:36:26.201Z,89.28
2022-10-28T04:37:26.205Z,89.17
2022-10-28T04:38:26.210Z,89.17
2022-10-28T04:39:26.178Z,89.17
2022-10-28T04:40:26.165Z,89.28
2022-10-28T04:41:26.138Z,89.28
2022-10-28T04:42:26.136Z,89.17
2022-10-28T04:43:26.131Z,89.17
2022-10-28T04:44:26.107Z,89.28
2022-10-28T04:45:26.097Z,89.28
2022-10-28T04:46:26.086Z,89.28
2022-10-28T04:47:26.066Z,89.48
2022-10-28T04:48:26.081Z,89.48
2022-10-28T04:49:26.037Z,89.48
2022-10-28T04:50:26.043Z,89.58
2022-10-28T04:51:26.027Z,89.48
2022-10-28T04:52:26.009Z,89.48
2022-10-28T04:53:26.004Z,89.37
2022-10-28T04:54:25.978Z,89.28
2022-10-28T04:55:25.969Z,89.48
2022-10-28T04:56:25.963Z,89.37
2022-10-28T04:57:25.924Z,89.37
2022-10-28T04:58:25.944Z,89.37
2022-10-28T04:59:25.906Z,89.62
2022-10-28T05:00:25.883Z,89.72
2022-10-28T05:01:25.978Z,89.72
2022-10-28T05:02:25.929Z,89.62
2022-10-28T05:03:25.874Z,89.83
2022-10-28T05:04:25.833Z,90.03
2022-10-28T05:05:25.846Z,90.03
2022-10-28T05:06:25.812Z,90.12
2022-10-28T05:07:25.835Z,90.12
2022-10-28T05:08:25.792Z,90.23
2022-10-28T05:09:25.785Z,90.43
2022-10-28T05:10:25.797Z,90.43
2022-10-28T05:11:25.755Z,90.53
2022-10-28T05:12:25.735Z,90.53
2022-10-28T05:13:25.737Z,90.53
2022-10-28T05:14:25.725Z,90.53
2022-10-28T05:15:25.691Z,90.67
2022-10-28T05:16:25.673Z,90.53
2022-10-28T05:17:25.675Z,90.58
2022-10-28T05:18:25.665Z,90.63
2022-10-28T05:19:25.659Z,90.67
2022-10-28T05:20:25.643Z,90.78
2022-10-28T05:21:25.611Z,90.88
2022-10-28T05:22:33.623Z,90.88
2022-10-28T05:23:30.683Z,90.88
2022-10-28T05:24:27.263Z,90.98
2022-10-28T05:25:27.263Z,91.08
2022-10-28T05:26:25.550Z,91.18
2022-10-28T05:27:25.539Z,91.18
2022-10-28T05:28:25.541Z,91.28
2022-10-28T05:29:27.736Z,91.28
2022-10-28T05:30:26.497Z,91.28
2022-10-28T05:31:25.506Z,91.28
2022-10-28T05:32:25.470Z,91.28
2022-10-28T05:33:25.455Z,91.38
2022-10-28T05:34:25.442Z,91.38
2022-10-28T05:35:25.423Z,91.38
2022-10-28T05:36:25.436Z,91.38
2022-10-28T05:37:25.416Z,91.49
2022-10-28T05:38:25.406Z,91.49
2022-10-28T05:39:25.362Z,91.58
2022-10-28T05:40:25.376Z,91.58
2022-10-28T05:41:25.444Z,91.69
2022-10-28T05:42:25.332Z,91.78
2022-10-28T05:43:25.346Z,91.89
2022-10-28T05:44:25.332Z,91.93
2022-10-28T05:45:25.393Z,92.03
2022-10-28T05:46:25.305Z,92.13
2022-10-28T05:47:25.286Z,92.24
2022-10-28T05:48:25.284Z,92.33
2022-10-28T05:49:25.233Z,92.33
2022-10-28T05:50:25.236Z,92.44
2022-10-28T05:51:25.235Z,92.44
2022-10-28T05:52:25.216Z,92.54
2022-10-28T05:53:25.244Z,92.54
2022-10-28T05:54:25.185Z,92.44
2022-10-28T05:55:25.174Z,92.54
2022-10-28T05:56:25.177Z,92.54
2022-10-28T05:57:25.157Z,92.64
2022-10-28T05:58:27.063Z,92.54
2022-10-28T05:59:25.122Z,92.54
2022-10-28T06:00:25.099Z,92.64
2022-10-28T06:01:25.179Z,92.68
2022-10-28T06:02:25.070Z,92.74
2022-10-28T06:03:30.095Z,92.79
2022-10-28T06:04:26.051Z,92.79
2022-10-28T06:05:25.022Z,92.79
2022-10-28T06:06:25.018Z,92.88
2022-10-28T06:07:25.014Z,92.99
2022-10-28T06:08:24.993Z,92.79
2022-10-28T06:09:24.992Z,92.64
2022-10-28T06:10:24.981Z,92.64
2022-10-28T06:11:23.434Z,92.44
2022-10-28T06:12:23.471Z,92.33
2022-10-28T06:13:23.402Z,92.24
2022-10-28T06:14:23.390Z,92.24
2022-10-28T06:15:23.383Z,92.24
2022-10-28T06:16:23.350Z,92.24
2022-10-28T06:17:23.352Z,92.24
2022-10-28T06:18:23.356Z,92.13
2022-10-28T06:19:23.342Z,92.33
2022-10-28T06:20:23.301Z,92.33
2022-10-28T06:21:23.297Z,92.33
2022-10-28T06:22:23.298Z,92.24
2022-10-28T06:23:23.262Z,92.24
2022-10-28T06:24:23.263Z,92.33
2022-10-28T06:25:23.249Z,92.33
2022-10-28T06:26:23.235Z,92.33
2022-10-28T06:27:23.230Z,92.33
2022-10-28T06:28:23.216Z,92.24
2022-10-28T06:29:23.219Z,92.13
2022-10-28T06:30:23.185Z,91.78
2022-10-28T06:31:23.182Z,91.69
2022-10-28T06:32:23.176Z,91.78
2022-10-28T06:33:23.174Z,91.78
2022-10-28T06:34:23.142Z,91.78
2022-10-28T06:35:23.146Z,91.78
2022-10-28T06:36:23.116Z,91.78
2022-10-28T06:37:23.108Z,91.58
2022-10-28T06:38:23.083Z,91.58
2022-10-28T06:39:23.117Z,91.58
2022-10-28T06:40:23.089Z,91.49
2022-10-28T06:41:23.066Z,91.49
2022-10-28T06:42:23.039Z,91.49
2022-10-28T06:43:23.012Z,91.49
2022-10-28T06:44:23.043Z,91.58
2022-10-28T06:45:22.989Z,91.58
2022-10-28T06:46:23.005Z,91.69
2022-10-28T06:47:24.499Z,91.69
2022-10-28T06:48:24.482Z,91.69
2022-10-28T06:49:24.484Z,91.89
2022-10-28T06:50:24.439Z,91.99
2022-10-28T06:51:24.444Z,91.99
2022-10-28T06:52:24.417Z,91.99
2022-10-28T06:53:24.431Z,91.99
2022-10-28T06:54:24.421Z,91.99
2022-10-28T06:55:24.395Z,91.99
2022-10-28T06:56:24.365Z,92.09
2022-10-28T06:57:26.883Z,92.19
2022-10-28T06:58:24.369Z,91.99
2022-10-28T06:59:24.336Z,91.78
2022-10-28T07:00:24.355Z,91.78
2022-10-28T07:01:24.418Z,91.78
2022-10-28T07:02:24.386Z,91.58
2022-10-28T07:03:24.292Z,91.38
2022-10-28T07:04:24.304Z,91.14
2022-10-28T07:05:24.262Z,91.14
2022-10-28T07:06:24.251Z,91.24
2022-10-28T07:07:24.254Z,91.14
2022-10-28T07:08:24.277Z,91.14
2022-10-28T07:09:24.224Z,91.14
2022-10-28T07:10:24.326Z,91.03
2022-10-28T07:11:24.183Z,90.83
2022-10-28T07:12:24.198Z,90.73
2022-10-28T07:13:24.184Z,90.53
2022-10-28T07:14:24.166Z,90.53
2022-10-28T07:15:24.139Z,90.53
2022-10-28T07:16:24.132Z,90.53
2022-10-28T07:17:24.124Z,90.63
2022-10-28T07:18:24.112Z,90.83
2022-10-28T07:19:24.116Z,90.63
2022-10-28T07:20:24.161Z,90.73
2022-10-28T07:21:24.062Z,90.83
2022-10-28T07:22:25.799Z,90.83
2022-10-28T07:23:24.049Z,90.83
2022-10-28T07:24:24.090Z,90.83
2022-10-28T07:25:24.023Z,90.83
2022-10-28T07:26:24.046Z,90.83
2022-10-28T07:27:23.983Z,90.94
2022-10-28T07:28:23.965Z,90.94
2022-10-28T07:29:23.964Z,90.94
2022-10-28T07:30:24.043Z,90.73
2022-10-28T07:31:23.947Z,90.63
2022-10-28T07:32:23.929Z,90.39
2022-10-28T07:33:23.918Z,90.08
2022-10-28T07:34:26.982Z,89.98
2022-10-28T07:35:23.886Z,89.88
2022-10-28T07:36:23.911Z,89.58
2022-10-28T07:37:23.891Z,89.37
2022-10-28T07:38:23.870Z,89.37
2022-10-28T07:39:23.903Z,89.13
2022-10-28T07:40:23.900Z,89.13
2022-10-28T07:41:23.833Z,89.13
2022-10-28T07:42:23.803Z,88.83
2022-10-28T07:43:23.777Z,88.83
2022-10-28T07:44:23.778Z,88.93
2022-10-28T07:45:23.790Z,89.03
2022-10-28T07:46:23.726Z,88.93
2022-10-28T07:47:23.718Z,88.73
2022-10-28T07:48:23.741Z,88.83
2022-10-28T07:49:23.700Z,88.63
2022-10-28T07:50:23.705Z,88.43
2022-10-28T07:51:23.676Z,88.39
2022-10-28T07:52:23.726Z,88.48
2022-10-28T07:53:26.302Z,88.59
2022-10-28T07:54:24.664Z,88.28
2022-10-28T07:55:23.630Z,87.98
2022-10-28T07:56:23.635Z,87.68
2022-10-28T07:57:23.588Z,87.58
2022-10-28T07:58:23.616Z,87.88
2022-10-28T07:59:26.623Z,87.84
2022-10-28T08:00:23.560Z,87.84
2022-10-28T08:01:23.665Z,87.74
2022-10-28T08:02:23.531Z,87.74
2022-10-28T08:03:27.784Z,87.34
2022-10-28T08:04:24.596Z,87.13
2022-10-28T08:05:24.411Z,87.03
2022-10-28T08:06:23.540Z,87.03
2022-10-28T08:07:23.445Z,86.83
2022-10-28T08:08:23.460Z,86.63
2022-10-28T08:09:23.401Z,86.53
2022-10-28T08:10:23.420Z,86.69
2022-10-28T08:11:24.114Z,86.89
2022-10-28T08:12:23.374Z,86.79
2022-10-28T08:13:23.337Z,86.69
2022-10-28T08:14:23.345Z,86.29
2022-10-28T08:15:23.372Z,86.18
2022-10-28T08:16:23.298Z,86.79
2022-10-28T08:17:23.319Z,86.79
2022-10-28T08:18:23.321Z,86.55
2022-10-28T08:19:23.315Z,86.15
2022-10-28T08:20:23.255Z,85.54
2022-10-28T08:21:23.245Z,85.64
2022-10-28T08:22:23.383Z,85.34
2022-10-28T08:23:23.271Z,85.14
2022-10-28T08:24:23.189Z,85.14
2022-10-28T08:25:23.203Z,85.14
2022-10-28T08:26:24.161Z,85.44
2022-10-28T08:27:23.249Z,84.83
2022-10-28T08:28:23.140Z,84.63
2022-10-28T08:29:27.622Z,84.53
2022-10-28T08:30:24.209Z,84.33
2022-10-28T08:31:23.104Z,84.63
2022-10-28T08:32:23.078Z,84.23
2022-10-28T08:33:23.081Z,84.43
2022-10-28T08:34:23.087Z,84.53
2022-10-28T08:35:23.060Z,85.03
2022-10-28T08:36:23.040Z,85.14
2022-10-28T08:37:23.084Z,85.03
2022-10-28T08:38:23.001Z,84.94
2022-10-28T08:39:23.057Z,85.14
2022-10-28T08:40:22.989Z,85.74
2022-10-28T08:41:22.990Z,85.74
2022-10-28T08:42:22.947Z,85.84
2022-10-28T08:43:34.902Z,85.54
2022-10-28T08:44:23.962Z,85.14
2022-10-28T08:45:22.910Z,85.64
2022-10-28T08:46:22.900Z,85.74
2022-10-28T08:47:22.927Z,85.34
2022-10-28T08:48:22.860Z,84.94
2022-10-28T08:49:22.882Z,85.44
2022-10-28T08:50:22.853Z,85.34
2022-10-28T08:51:32.090Z,85.54
2022-10-28T08:52:22.858Z,85.24
2022-10-28T08:53:22.805Z,85.24
2022-10-28T08:54:23.527Z,85.03
2022-10-28T08:55:22.855Z,85.03
2022-10-28T08:56:22.809Z,84.43
2022-10-28T08:57:22.764Z,84.53
2022-10-28T08:58:22.765Z,84.59
2022-10-28T08:59:22.802Z,84.49
2022-10-28T09:00:22.775Z,84.39
2022-10-28T09:01:22.910Z,84.29
2022-10-28T09:02:22.728Z,84.19
2022-10-28T09:03:22.722Z,84.49
2022-10-28T09:04:22.700Z,84.39
2022-10-28T09:05:22.716Z,84.29
2022-10-28T09:06:22.638Z,83.99
2022-10-28T09:07:22.669Z,83.65
2022-10-28T09:08:22.629Z,83.45
2022-10-28T09:09:22.655Z,83.45
2022-10-28T09:10:22.597Z,83.25
2022-10-28T09:11:26.352Z,82.64
2022-10-28T09:12:22.600Z,82.40
2022-10-28T09:13:22.560Z,82.50
2022-10-28T09:14:22.557Z,82.40
2022-10-28T09:15:22.570Z,82.60
2022-10-28T09:16:22.686Z,81.59
2022-10-28T09:17:22.526Z,81.46
2022-10-28T09:18:22.507Z,81.15
2022-10-28T09:19:22.488Z,81.15
2022-10-28T09:20:22.459Z,80.65
2022-10-28T09:21:22.434Z,80.45
2022-10-28T09:22:22.436Z,81.05
2022-10-28T09:23:22.459Z,80.51
2022-10-28T09:24:22.421Z,81.01
2022-10-28T09:25:22.478Z,81.01
2022-10-28T09:26:22.376Z,80.81
2022-10-28T09:27:23.349Z,80.71
2022-10-28T09:28:22.367Z,80.91
2022-10-28T09:29:22.351Z,80.41
2022-10-28T09:30:22.342Z,80.21
2022-10-28T09:31:22.547Z,80.41
2022-10-28T09:32:22.308Z,80.31
2022-10-28T09:33:22.306Z,80.21
2022-10-28T09:34:22.348Z,79.91
2022-10-28T09:35:22.259Z,80.01
2022-10-28T09:36:22.256Z,79.47
2022-10-28T09:37:22.348Z,79.77
2022-10-28T09:38:22.251Z,79.87
2022-10-28T09:39:25.377Z,79.77
2022-10-28T09:40:23.206Z,79.77
2022-10-28T09:41:22.196Z,79.67
2022-10-28T09:42:22.325Z,79.27
2022-10-28T09:43:22.274Z,79.27
2022-10-28T09:44:22.201Z,79.47
2022-10-28T09:45:25.659Z,79.33
2022-10-28T09:46:22.212Z,78.83
2022-10-28T09:47:22.121Z,79.23
2022-10-28T09:48:22.099Z,79.73
2022-10-28T09:49:22.088Z,79.23
2022-10-28T09:50:22.079Z,78.93
2022-10-28T09:51:22.057Z,79.13
2022-10-28T09:52:22.039Z,79.53
2022-10-28T09:53:22.194Z,79.27
2022-10-28T09:54:22.068Z,79.13
2022-10-28T09:55:22.078Z,79.13
2022-10-28T09:56:22.014Z,79.53
2022-10-28T09:57:22.006Z,79.13
2022-10-28T09:58:21.995Z,79.53
2022-10-28T09:59:22.157Z,79.33
2022-10-28T10:00:21.963Z,79.13
2022-10-28T10:01:21.987Z,79.63
2022-10-28T10:02:21.958Z,79.53
2022-10-28T10:03:21.936Z,78.39
2022-10-28T10:04:21.926Z,78.69
2022-10-28T10:05:21.894Z,78.29
2022-10-28T10:06:21.907Z,78.19
2022-10-28T10:07:21.852Z,78.69
2022-10-28T10:08:21.923Z,78.29
2022-10-28T10:09:21.925Z,78.09
2022-10-28T10:10:21.909Z,78.75
2022-10-28T10:11:21.807Z,78.25
2022-10-28T10:12:21.817Z,78.45
2022-10-28T10:13:21.764Z,78.45
2022-10-28T10:14:22.016Z,77.95
2022-10-28T10:15:21.892Z,78.55
2022-10-28T10:16:21.760Z,78.55
2022-10-28T10:17:21.790Z,78.35
2022-10-28T10:18:21.740Z,78.75
2022-10-28T10:19:21.758Z,77.85
2022-10-28T10:20:21.677Z,78.45
2022-10-28T10:21:21.717Z,78.45
2022-10-28T10:22:21.714Z,78.85
2022-10-28T10:23:21.677Z,78.45
2022-10-28T10:24:21.688Z,78.45
2022-10-28T10:27:00.794Z,78.66
2022-10-28T10:28:00.807Z,78.75
2022-10-28T10:29:00.760Z,78.25
2022-10-28T10:30:01.004Z,78.05
2022-10-28T10:31:00.744Z,78.35
2022-10-28T10:32:00.727Z,78.75
2022-10-28T10:33:00.713Z,78.75
2022-10-28T10:34:00.690Z,78.55
2022-10-28T10:35:00.744Z,78.55
2022-10-28T10:36:01.523Z,78.85
2022-10-28T10:37:00.704Z,78.96
2022-10-28T10:38:00.663Z,79.25
2022-10-28T10:39:00.640Z,78.85
2022-10-28T10:40:00.653Z,78.85
2022-10-28T10:41:00.601Z,78.25
2022-10-28T10:42:00.622Z,78.55
2022-10-28T10:43:12.830Z,78.75
2022-10-28T10:44:01.644Z,78.85
2022-10-28T10:45:00.602Z,78.35
2022-10-28T10:46:00.563Z,78.72
2022-10-28T10:47:05.101Z,78.11
2022-10-28T10:48:01.501Z,77.72
2022-10-28T10:49:00.632Z,77.81
2022-10-28T10:50:00.485Z,77.81
2022-10-28T10:51:00.512Z,77.72
2022-10-28T10:52:00.481Z,77.81
2022-10-28T10:53:00.456Z,78.61
2022-10-28T10:54:00.444Z,78.52
2022-10-28T10:55:00.412Z,78.42
2022-10-28T10:56:00.439Z,78.02
2022-10-28T10:57:00.403Z,78.28
2022-10-28T10:58:00.375Z,77.48
2022-10-28T10:59:00.541Z,77.67
2022-10-28T11:00:00.604Z,77.58
2022-10-28T11:01:00.354Z,77.87
2022-10-28T11:02:00.577Z,77.87
2022-10-28T11:03:00.375Z,78.28
2022-10-28T11:04:00.323Z,78.48
2022-10-28T11:05:00.278Z,77.91
2022-10-28T11:06:21.866Z,77.72
2022-10-28T11:07:01.282Z,78.31
2022-10-28T11:08:00.294Z,78.61
2022-10-28T11:09:00.276Z,78.42
2022-10-28T11:10:00.260Z,78.28
2022-10-28T11:11:00.878Z,78.38
2022-10-28T11:12:00.200Z,78.48
2022-10-28T11:13:00.170Z,77.98
2022-10-28T11:14:00.180Z,77.78
2022-10-28T11:15:00.233Z,77.98
2022-10-28T11:16:00.381Z,77.98
2022-10-28T11:17:00.344Z,78.14
2022-10-28T11:18:01.207Z,77.84
2022-10-28T11:19:00.257Z,77.44
2022-10-28T11:20:00.377Z,77.44
2022-10-28T11:21:00.085Z,77.84
2022-10-28T11:22:00.092Z,77.64
2022-10-28T11:23:00.068Z,77.44
2022-10-28T11:24:00.429Z,77.50
2022-10-28T11:25:00.010Z,77.50
2022-10-28T11:26:00.345Z,77.40
2022-10-28T11:27:00.013Z,77.30
2022-10-28T11:28:01.672Z,76.80
2022-10-28T11:29:00.013Z,76.50
2022-10-28T11:29:59.972Z,76.40
2022-10-28T11:31:00.010Z,76.46
2022-10-28T11:31:59.994Z,76.76
2022-10-28T11:33:08.429Z,76.76
2022-10-28T11:34:01.075Z,76.26
2022-10-28T11:34:59.909Z,76.56
2022-10-28T11:35:59.881Z,76.37
2022-10-28T11:37:00.139Z,75.96
2022-10-28T11:37:59.860Z,75.46
2022-10-28T11:38:59.839Z,75.52
2022-10-28T11:39:59.820Z,75.33
2022-10-28T11:40:59.895Z,74.83
2022-10-28T11:41:59.902Z,75.52
2022-10-28T11:42:59.898Z,75.33
2022-10-28T11:44:04.953Z,75.33
2022-10-28T11:45:00.807Z,75.52
2022-10-28T11:45:59.772Z,75.13
2022-10-28T11:47:04.068Z,75.33
2022-10-28T11:47:59.773Z,75.73
2022-10-28T11:48:59.713Z,75.63
2022-10-28T11:49:59.704Z,75.43
2022-10-28T11:50:59.682Z,75.02
2022-10-28T11:51:59.658Z,74.73
2022-10-28T11:52:59.715Z,75.83
2022-10-28T11:53:59.639Z,75.73
2022-10-28T11:54:59.653Z,75.43
2022-10-28T11:55:59.618Z,75.83
2022-10-28T11:56:59.600Z,75.63
2022-10-28T11:57:59.700Z,75.73
2022-10-28T11:58:59.808Z,75.93
2022-10-28T11:59:59.593Z,76.13
2022-10-28T12:00:59.661Z,76.43
2022-10-28T12:01:59.739Z,76.43
2022-10-28T12:03:00.180Z,76.03
2022-10-28T12:03:59.518Z,75.93
2022-10-28T12:04:59.510Z,76.23
2022-10-28T12:05:59.511Z,76.23
2022-10-28T12:06:59.476Z,76.43
2022-10-28T12:07:59.470Z,76.33
2022-10-28T12:08:59.571Z,76.63
2022-10-28T12:09:59.517Z,76.23
2022-10-28T12:10:59.429Z,76.03
2022-10-28T12:12:07.356Z,76.03
2022-10-28T12:12:59.729Z,76.09
2022-10-28T12:13:59.539Z,76.79
2022-10-28T12:14:59.395Z,76.79
2022-10-28T12:15:59.356Z,76.09
2022-10-28T12:16:59.346Z,76.39
2022-10-28T12:17:59.331Z,76.99
2022-10-28T12:18:59.448Z,76.89
2022-10-28T12:19:59.322Z,76.99
2022-10-28T12:20:59.384Z,76.69
2022-10-28T12:21:59.353Z,74.69
2022-10-28T12:22:59.323Z,74.79
2022-10-28T12:23:59.425Z,75.39
2022-10-28T12:24:59.358Z,75.69
2022-10-28T12:25:59.402Z,75.46
2022-10-28T12:26:59.404Z,76.35
2022-10-28T12:27:59.228Z,75.35
2022-10-28T12:28:59.214Z,74.76
2022-10-28T12:29:59.181Z,75.05
2022-10-28T12:30:59.392Z,74.76
2022-10-28T12:31:59.404Z,74.96
2022-10-28T12:32:59.201Z,74.76
2022-10-28T12:33:59.267Z,74.26
2022-10-28T12:35:00.123Z,73.86
2022-10-28T12:35:59.157Z,73.16
2022-10-28T12:36:59.113Z,72.96
2022-10-28T12:37:59.220Z,73.25
2022-10-28T12:38:59.153Z,72.76
2022-10-28T12:39:59.081Z,72.86
2022-10-28T12:40:59.052Z,72.16
2022-10-28T12:41:59.021Z,71.76
2022-10-28T12:42:59.013Z,72.56
2022-10-28T12:43:58.991Z,72.36
2022-10-28T12:44:59.021Z,71.76
2022-10-28T12:45:59.014Z,72.06
2022-10-28T12:46:58.991Z,71.56
2022-10-28T12:47:59.396Z,71.36
2022-10-28T12:48:58.971Z,71.96
2022-10-28T12:49:58.989Z,71.76
2022-10-28T12:50:58.956Z,71.96
2022-10-28T12:51:58.983Z,71.66
2022-10-28T12:52:58.898Z,71.46
2022-10-28T12:53:58.903Z,71.46
2022-10-28T12:54:58.885Z,71.36
2022-10-28T12:55:58.931Z,71.76